KDVK

Details ICAO KDVK
Name STUART POWELL FLD
Region United States
Timezone America/New_York (UTC-4.0)
Plans Departing 7
Arriving 5
Stats Elevation 1,022 ft / 312 m (AMSL)
Location 37.578849° -84.770828°
Runways 2
Magnetic Variation 5.455° W
Sunrise 2018-05-27 10:23:02 UTC / 2018-05-27 06:23:02 Local
Sunset 2018-05-28 00:52:22 UTC / 2018-05-27 20:52:22 Local
Advertisement - Login to hide

Runways

ID Width Length Bearing (true) Bearing (mag) Surface Threshold Offset Overrun Length
01 75 ft / 23 m 2,362 ft / 720 m 7.92° 13.37° Asphalt 0 ft / 0 m 0 ft / 0 m
12 75 ft / 23 m 4,995 ft / 1,522 m 121.64° 127.09° Asphalt 0 ft / 0 m 0 ft / 0 m
19 75 ft / 23 m 2,362 ft / 720 m 187.92° 193.37° Asphalt 551 ft / 168 m 0 ft / 0 m
30 75 ft / 23 m 4,995 ft / 1,522 m 301.65° 307.10° Asphalt 0 ft / 0 m 0 ft / 0 m

Map

Weather


0- 5 10 15 20 25 30 35+ Temperature / ° C

Clouds and Precipitation
Forecast for 2018-05-27 12:00 UTC. Updated an hour ago

Ground ~20,000 ft ~40,000 ft Winds

METAR

KDVK 271015Z AUTO 19003KT 10SM SCT035 BKN041 BKN090 20/19 A2995 RMK AO2

TAF

Not found

Frequencies

Recorded 128.32 MHz AWOS 3
Approach 120.15 MHz LEXINGTON APP/DEP
Unicom 122.80 MHz CTAF/UNICOM
Warning: Do not use this data for real-world aviation or navigation. No guarantee of current accuracy is given.